This is the latest recevied weather packets stored in our database for station/object KG7MRB. If no packets are shown the sender has not sent any weather packets the latest 10 day(s).
| Time | Temp. | Humidity | Pressure | Rain* | Wind** | Luminosity | Snow |
|---|---|---|---|---|---|---|---|
| 1777689463 | 20.56° C | 59% | 1032.7 hPa | 0 mm | - | 29 W/m² | - |
| 1777689160 | 20.56° C | 61% | 1032.6 hPa | 0 mm | - | 31 W/m² | - |
| 1777688858 | 20.56° C | 61% | 1032.6 hPa | 0 mm | - | 33 W/m² | - |
| 1777688554 | 20.56° C | 61% | 1032.7 hPa | 0 mm | - | 36 W/m² | - |
| 1777688251 | 20.56° C | 60% | 1032.6 hPa | 0 mm | - | 41 W/m² | - |
| 1777687948 | 21.11° C | 60% | 1032.5 hPa | 0 mm | - | 52 W/m² | - |
| 1777687645 | 21.11° C | 60% | 1032.6 hPa | 0 mm | - | 55 W/m² | - |
| 1777687343 | 21.11° C | 60% | 1032.6 hPa | 0 mm | - | 50 W/m² | - |
| 1777687041 | 21.67° C | 59% | 1032.6 hPa | 0 mm | - | 44 W/m² | - |
| 1777686736 | 21.67° C | 59% | 1032.6 hPa | 0 mm | - | 44 W/m² | - |
| 1777686434 | 22.22° C | 58% | 1032.6 hPa | 0 mm | - | 43 W/m² | - |
| 1777686131 | 22.78° C | 56% | 1032.3 hPa | 0 mm | - | 44 W/m² | - |
| 1777685827 | 22.78° C | 54% | 1032.4 hPa | 0 mm | - | 49 W/m² | - |
| 1777685522 | 23.33° C | 53% | 1032.6 hPa | 0 mm | - | 53 W/m² | - |
| 1777685220 | 23.33° C | 50% | 1032.7 hPa | 0 mm | - | 60 W/m² | - |
| 1777684918 | 23.89° C | 48% | 1032.6 hPa | 0 mm | - | 86 W/m² | - |
| 1777684614 | 23.89° C | 49% | 1032.5 hPa | 0 mm | - | 109 W/m² | - |
| 1777684310 | 23.89° C | 46% | 1032.5 hPa | 0 mm | - | 119 W/m² | - |
| 1777684008 | 23.89° C | 50% | 1032.6 hPa | 0 mm | - | 149 W/m² | - |
| 1777683704 | 23.89° C | 49% | 1032.3 hPa | 0 mm | - | 171 W/m² | - |
| 1777683402 | 23.89° C | 46% | 1032.6 hPa | 0 mm | - | 135 W/m² | - |
| 1777683099 | 23.89° C | 50% | 1032.6 hPa | 0 mm | - | 129 W/m² | - |
| 1777682795 | 23.89° C | 48% | 1032.5 hPa | 0 mm | - | 161 W/m² | - |
| 1777682492 | 23.89° C | 48% | 1032.4 hPa | 0 mm | - | 159 W/m² | - |
| 1777682190 | 24.44° C | 48% | 1032.6 hPa | 0 mm | - | 137 W/m² | - |
* Rain latest hour (hover to see other rain measurements)
** Current wind speed in m/s (hover to see current wind gust speed)